sensor_id;sensor_type;location;lat;lon;timestamp;temperature;humidity
83808;SHT31;73824;40.292;17.998;2023-12-28T00:00:17;8.18;93.90
83808;SHT31;73824;40.292;17.998;2023-12-28T00:02:43;8.12;93.95
83808;SHT31;73824;40.292;17.998;2023-12-28T00:05:08;8.09;93.98
83808;SHT31;73824;40.292;17.998;2023-12-28T00:07:33;8.13;94.05
83808;SHT31;73824;40.292;17.998;2023-12-28T00:09:59;8.08;94.08
83808;SHT31;73824;40.292;17.998;2023-12-28T00:12:25;8.09;94.21
83808;SHT31;73824;40.292;17.998;2023-12-28T00:14:50;8.13;94.25
83808;SHT31;73824;40.292;17.998;2023-12-28T00:17:16;8.09;94.28
83808;SHT31;73824;40.292;17.998;2023-12-28T00:19:42;8.11;94.34
83808;SHT31;73824;40.292;17.998;2023-12-28T00:22:07;8.09;94.36
83808;SHT31;73824;40.292;17.998;2023-12-28T00:24:32;8.08;94.46
83808;SHT31;73824;40.292;17.998;2023-12-28T00:26:58;8.11;94.55
83808;SHT31;73824;40.292;17.998;2023-12-28T00:29:23;8.13;94.55
83808;SHT31;73824;40.292;17.998;2023-12-28T00:31:49;8.21;94.50
83808;SHT31;73824;40.292;17.998;2023-12-28T00:34:14;8.24;94.47
83808;SHT31;73824;40.292;17.998;2023-12-28T00:36:40;8.26;94.47
83808;SHT31;73824;40.292;17.998;2023-12-28T00:39:05;8.26;94.46
83808;SHT31;73824;40.292;17.998;2023-12-28T00:41:31;8.21;94.54
83808;SHT31;73824;40.292;17.998;2023-12-28T00:43:56;8.18;94.49
83808;SHT31;73824;40.292;17.998;2023-12-28T00:46:22;8.21;94.51
83808;SHT31;73824;40.292;17.998;2023-12-28T00:48:47;8.19;94.51
83808;SHT31;73824;40.292;17.998;2023-12-28T00:51:13;8.13;94.53
83808;SHT31;73824;40.292;17.998;2023-12-28T00:53:39;8.09;94.61
83808;SHT31;73824;40.292;17.998;2023-12-28T00:56:04;8.08;94.61
83808;SHT31;73824;40.292;17.998;2023-12-28T00:58:30;8.02;94.71
83808;SHT31;73824;40.292;17.998;2023-12-28T01:00:55;8.05;94.73
83808;SHT31;73824;40.292;17.998;2023-12-28T01:03:22;8.08;94.70
83808;SHT31;73824;40.292;17.998;2023-12-28T01:05:48;8.03;94.67
83808;SHT31;73824;40.292;17.998;2023-12-28T01:08:16;7.99;94.64
83808;SHT31;73824;40.292;17.998;2023-12-28T01:10:43;7.95;94.60
83808;SHT31;73824;40.292;17.998;2023-12-28T01:13:08;7.88;94.53
83808;SHT31;73824;40.292;17.998;2023-12-28T01:15:34;7.84;94.50
83808;SHT31;73824;40.292;17.998;2023-12-28T01:17:59;7.71;94.55
83808;SHT31;73824;40.292;17.998;2023-12-28T01:20:25;7.67;94.60
83808;SHT31;73824;40.292;17.998;2023-12-28T01:22:51;7.77;94.58
83808;SHT31;73824;40.292;17.998;2023-12-28T01:25:16;7.77;94.60
83808;SHT31;73824;40.292;17.998;2023-12-28T01:27:43;7.75;94.60
83808;SHT31;73824;40.292;17.998;2023-12-28T01:30:09;7.74;94.61
83808;SHT31;73824;40.292;17.998;2023-12-28T01:32:34;7.73;94.61
83808;SHT31;73824;40.292;17.998;2023-12-28T01:34:59;7.70;94.61
83808;SHT31;73824;40.292;17.998;2023-12-28T01:37:25;7.70;94.61
83808;SHT31;73824;40.292;17.998;2023-12-28T01:39:51;7.70;94.63
83808;SHT31;73824;40.292;17.998;2023-12-28T01:42:16;7.71;94.64
83808;SHT31;73824;40.292;17.998;2023-12-28T01:44:42;7.71;94.65
83808;SHT31;73824;40.292;17.998;2023-12-28T01:47:07;7.70;94.66
83808;SHT31;73824;40.292;17.998;2023-12-28T01:49:36;7.66;94.62
83808;SHT31;73824;40.292;17.998;2023-12-28T01:52:02;7.62;94.67
83808;SHT31;73824;40.292;17.998;2023-12-28T01:54:28;7.60;94.64
83808;SHT31;73824;40.292;17.998;2023-12-28T01:56:54;7.62;94.63
83808;SHT31;73824;40.292;17.998;2023-12-28T01:59:20;7.62;94.58
83808;SHT31;73824;40.292;17.998;2023-12-28T02:02:02;7.59;94.54
83808;SHT31;73824;40.292;17.998;2023-12-28T02:04:51;7.52;94.49
83808;SHT31;73824;40.292;17.998;2023-12-28T02:07:36;7.50;94.48
83808;SHT31;73824;40.292;17.998;2023-12-28T02:10:23;7.49;94.45
83808;SHT31;73824;40.292;17.998;2023-12-28T02:13:21;7.46;94.51
83808;SHT31;73824;40.292;17.998;2023-12-28T02:16:44;7.46;94.46
83808;SHT31;73824;40.292;17.998;2023-12-28T04:54:21;6.81;93.93
83808;SHT31;73824;40.292;17.998;2023-12-28T04:56:47;6.88;93.91
83808;SHT31;73824;40.292;17.998;2023-12-28T04:59:12;6.84;93.87
83808;SHT31;73824;40.292;17.998;2023-12-28T05:01:45;6.83;93.92
83808;SHT31;73824;40.292;17.998;2023-12-28T05:04:11;6.80;93.95
83808;SHT31;73824;40.292;17.998;2023-12-28T05:06:37;6.75;93.95
83808;SHT31;73824;40.292;17.998;2023-12-28T05:09:03;6.74;93.90
83808;SHT31;73824;40.292;17.998;2023-12-28T05:11:29;6.74;93.96
83808;SHT31;73824;40.292;17.998;2023-12-28T05:13:54;6.73;94.00
83808;SHT31;73824;40.292;17.998;2023-12-28T05:16:20;6.70;93.94
83808;SHT31;73824;40.292;17.998;2023-12-28T05:18:46;6.70;93.97
83808;SHT31;73824;40.292;17.998;2023-12-28T05:21:12;6.73;93.98
83808;SHT31;73824;40.292;17.998;2023-12-28T05:23:38;6.75;93.96
83808;SHT31;73824;40.292;17.998;2023-12-28T05:26:04;6.78;93.97
83808;SHT31;73824;40.292;17.998;2023-12-28T05:28:30;6.75;93.89
83808;SHT31;73824;40.292;17.998;2023-12-28T05:30:55;6.77;93.85
83808;SHT31;73824;40.292;17.998;2023-12-28T05:33:21;6.66;93.85
83808;SHT31;73824;40.292;17.998;2023-12-28T05:35:48;6.74;93.88
83808;SHT31;73824;40.292;17.998;2023-12-28T05:38:13;6.70;93.84
83808;SHT31;73824;40.292;17.998;2023-12-28T05:40:39;6.71;93.94
83808;SHT31;73824;40.292;17.998;2023-12-28T05:43:04;6.67;93.92
83808;SHT31;73824;40.292;17.998;2023-12-28T05:45:30;6.67;93.85
83808;SHT31;73824;40.292;17.998;2023-12-28T05:47:55;6.73;93.72
83808;SHT31;73824;40.292;17.998;2023-12-28T05:50:21;6.70;93.61
83808;SHT31;73824;40.292;17.998;2023-12-28T05:52:46;6.68;93.58
83808;SHT31;73824;40.292;17.998;2023-12-28T05:55:12;6.68;93.60
83808;SHT31;73824;40.292;17.998;2023-12-28T05:57:37;6.66;93.68
83808;SHT31;73824;40.292;17.998;2023-12-28T06:00:03;6.66;93.67
83808;SHT31;73824;40.292;17.998;2023-12-28T06:02:29;6.70;93.72
83808;SHT31;73824;40.292;17.998;2023-12-28T06:04:55;6.70;93.73
83808;SHT31;73824;40.292;17.998;2023-12-28T06:07:20;6.70;93.79
83808;SHT31;73824;40.292;17.998;2023-12-28T06:09:46;6.77;93.81
83808;SHT31;73824;40.292;17.998;2023-12-28T06:12:12;6.84;93.76
83808;SHT31;73824;40.292;17.998;2023-12-28T06:14:37;6.83;93.83
83808;SHT31;73824;40.292;17.998;2023-12-28T06:17:03;6.87;93.81
83808;SHT31;73824;40.292;17.998;2023-12-28T06:19:28;6.88;93.86
83808;SHT31;73824;40.292;17.998;2023-12-28T06:21:54;6.91;93.82
83808;SHT31;73824;40.292;17.998;2023-12-28T06:24:20;6.96;93.90
83808;SHT31;73824;40.292;17.998;2023-12-28T06:26:45;7.05;93.79
83808;SHT31;73824;40.292;17.998;2023-12-28T06:29:11;7.11;93.84
83808;SHT31;73824;40.292;17.998;2023-12-28T06:31:37;7.16;93.80
83808;SHT31;73824;40.292;17.998;2023-12-28T06:34:03;7.32;93.62
83808;SHT31;73824;40.292;17.998;2023-12-28T06:36:29;7.39;93.49
83808;SHT31;73824;40.292;17.998;2023-12-28T06:38:54;7.52;93.49
83808;SHT31;73824;40.292;17.998;2023-12-28T06:41:20;7.60;93.26
83808;SHT31;73824;40.292;17.998;2023-12-28T06:43:45;7.69;93.18
83808;SHT31;73824;40.292;17.998;2023-12-28T06:46:11;8.42;93.74
83808;SHT31;73824;40.292;17.998;2023-12-28T06:48:36;10.00;93.44
83808;SHT31;73824;40.292;17.998;2023-12-28T06:51:05;11.04;90.16
83808;SHT31;73824;40.292;17.998;2023-12-28T06:53:31;10.88;85.14
83808;SHT31;73824;40.292;17.998;2023-12-28T06:55:56;10.44;85.83
83808;SHT31;73824;40.292;17.998;2023-12-28T06:58:22;9.87;84.61
83808;SHT31;73824;40.292;17.998;2023-12-28T07:00:47;9.67;85.83
83808;SHT31;73824;40.292;17.998;2023-12-28T07:03:13;9.53;86.36
83808;SHT31;73824;40.292;17.998;2023-12-28T07:05:38;9.66;87.05
83808;SHT31;73824;40.292;17.998;2023-12-28T07:08:04;9.79;86.63
83808;SHT31;73824;40.292;17.998;2023-12-28T07:10:29;9.90;86.16
83808;SHT31;73824;40.292;17.998;2023-12-28T07:12:55;9.98;85.64
83808;SHT31;73824;40.292;17.998;2023-12-28T07:15:20;10.24;85.50
83808;SHT31;73824;40.292;17.998;2023-12-28T07:17:46;10.34;84.91
83808;SHT31;73824;40.292;17.998;2023-12-28T07:20:11;10.38;83.87
83808;SHT31;73824;40.292;17.998;2023-12-28T07:22:37;10.61;84.04
83808;SHT31;73824;40.292;17.998;2023-12-28T07:25:06;10.73;83.47
83808;SHT31;73824;40.292;17.998;2023-12-28T07:27:34;11.04;82.73
83808;SHT31;73824;40.292;17.998;2023-12-28T07:30:02;11.41;82.12
83808;SHT31;73824;40.292;17.998;2023-12-28T07:32:29;11.95;82.15
83808;SHT31;73824;40.292;17.998;2023-12-28T07:34:54;13.81;80.61
83808;SHT31;73824;40.292;17.998;2023-12-28T07:37:20;17.06;65.24
83808;SHT31;73824;40.292;17.998;2023-12-28T07:39:46;20.56;54.97
83808;SHT31;73824;40.292;17.998;2023-12-28T07:42:12;22.71;44.82
83808;SHT31;73824;40.292;17.998;2023-12-28T07:44:38;24.64;42.05
83808;SHT31;73824;40.292;17.998;2023-12-28T07:47:04;26.02;37.50
83808;SHT31;73824;40.292;17.998;2023-12-28T07:49:30;27.18;36.54
83808;SHT31;73824;40.292;17.998;2023-12-28T07:51:56;27.51;34.13
83808;SHT31;73824;40.292;17.998;2023-12-28T07:54:22;28.26;32.85
83808;SHT31;73824;40.292;17.998;2023-12-28T07:56:47;29.09;32.87
83808;SHT31;73824;40.292;17.998;2023-12-28T07:59:13;30.33;30.94
83808;SHT31;73824;40.292;17.998;2023-12-28T08:01:38;30.48;29.94
83808;SHT31;73824;40.292;17.998;2023-12-28T08:04:04;30.97;30.16
83808;SHT31;73824;40.292;17.998;2023-12-28T08:06:30;30.98;29.97
83808;SHT31;73824;40.292;17.998;2023-12-28T08:08:59;29.88;31.06
83808;SHT31;73824;40.292;17.998;2023-12-28T08:11:28;30.70;29.35
83808;SHT31;73824;40.292;17.998;2023-12-28T08:13:54;31.03;29.01
83808;SHT31;73824;40.292;17.998;2023-12-28T08:16:20;30.90;29.41
83808;SHT31;73824;40.292;17.998;2023-12-28T08:18:46;31.38;29.52
83808;SHT31;73824;40.292;17.998;2023-12-28T08:21:11;32.19;28.38
83808;SHT31;73824;40.292;17.998;2023-12-28T08:23:37;31.38;29.35
83808;SHT31;73824;40.292;17.998;2023-12-28T08:26:02;31.94;28.64
83808;SHT31;73824;40.292;17.998;2023-12-28T08:28:28;31.75;29.49
83808;SHT31;73824;40.292;17.998;2023-12-28T08:30:54;31.73;29.03
83808;SHT31;73824;40.292;17.998;2023-12-28T08:33:20;32.12;28.84
83808;SHT31;73824;40.292;17.998;2023-12-28T08:35:45;32.10;28.39
83808;SHT31;73824;40.292;17.998;2023-12-28T08:38:11;31.68;29.82
83808;SHT31;73824;40.292;17.998;2023-12-28T08:40:36;31.92;28.99
83808;SHT31;73824;40.292;17.998;2023-12-28T08:43:02;32.64;28.52
83808;SHT31;73824;40.292;17.998;2023-12-28T08:45:27;33.43;27.82
83808;SHT31;73824;40.292;17.998;2023-12-28T08:47:53;32.43;29.17
83808;SHT31;73824;40.292;17.998;2023-12-28T08:50:18;32.06;29.81
83808;SHT31;73824;40.292;17.998;2023-12-28T08:52:43;32.84;28.81
83808;SHT31;73824;40.292;17.998;2023-12-28T08:55:09;33.33;28.53
83808;SHT31;73824;40.292;17.998;2023-12-28T08:57:35;33.05;28.23
83808;SHT31;73824;40.292;17.998;2023-12-28T09:00:00;33.33;27.98
83808;SHT31;73824;40.292;17.998;2023-12-28T09:02:28;33.21;29.05
83808;SHT31;73824;40.292;17.998;2023-12-28T09:04:54;33.74;27.99
83808;SHT31;73824;40.292;17.998;2023-12-28T09:07:19;34.17;27.72
83808;SHT31;73824;40.292;17.998;2023-12-28T09:09:46;33.66;28.74
83808;SHT31;73824;40.292;17.998;2023-12-28T09:12:11;34.28;27.97
83808;SHT31;73824;40.292;17.998;2023-12-28T09:14:37;34.15;28.19
83808;SHT31;73824;40.292;17.998;2023-12-28T09:17:03;34.10;27.78
83808;SHT31;73824;40.292;17.998;2023-12-28T09:19:28;33.81;27.94
83808;SHT31;73824;40.292;17.998;2023-12-28T09:21:54;33.16;29.29
83808;SHT31;73824;40.292;17.998;2023-12-28T09:24:19;33.66;29.00
83808;SHT31;73824;40.292;17.998;2023-12-28T09:26:45;33.97;28.14
83808;SHT31;73824;40.292;17.998;2023-12-28T09:29:10;33.77;28.33
83808;SHT31;73824;40.292;17.998;2023-12-28T09:31:37;31.52;31.72
83808;SHT31;73824;40.292;17.998;2023-12-28T09:34:03;29.70;34.76
83808;SHT31;73824;40.292;17.998;2023-12-28T09:36:32;26.79;40.12
83808;SHT31;73824;40.292;17.998;2023-12-28T09:38:58;24.92;43.38
83808;SHT31;73824;40.292;17.998;2023-12-28T09:41:27;23.15;47.65
83808;SHT31;73824;40.292;17.998;2023-12-28T09:44:08;21.97;50.92
83808;SHT31;73824;40.292;17.998;2023-12-28T09:46:36;20.81;54.81
83808;SHT31;73824;40.292;17.998;2023-12-28T09:49:04;19.94;57.41
83808;SHT31;73824;40.292;17.998;2023-12-28T09:51:29;19.92;58.29
83808;SHT31;73824;40.292;17.998;2023-12-28T09:53:56;19.42;58.75
83808;SHT31;73824;40.292;17.998;2023-12-28T09:56:22;18.88;60.46
83808;SHT31;73824;40.292;17.998;2023-12-28T09:58:49;18.72;61.14
83808;SHT31;73824;40.292;17.998;2023-12-28T10:01:17;18.79;61.82
83808;SHT31;73824;40.292;17.998;2023-12-28T10:03:43;18.83;60.87
83808;SHT31;73824;40.292;17.998;2023-12-28T10:06:08;18.57;61.02
83808;SHT31;73824;40.292;17.998;2023-12-28T10:08:34;18.25;62.12
83808;SHT31;73824;40.292;17.998;2023-12-28T10:11:02;18.64;61.50
83808;SHT31;73824;40.292;17.998;2023-12-28T10:13:28;18.51;60.47
83808;SHT31;73824;40.292;17.998;2023-12-28T10:15:57;18.50;60.43
83808;SHT31;73824;40.292;17.998;2023-12-28T10:18:23;18.57;60.33
83808;SHT31;73824;40.292;17.998;2023-12-28T10:20:54;18.92;59.18
83808;SHT31;73824;40.292;17.998;2023-12-28T10:23:20;19.04;59.96
83808;SHT31;73824;40.292;17.998;2023-12-28T10:25:50;18.96;59.05
83808;SHT31;73824;40.292;17.998;2023-12-28T10:28:18;19.33;58.07
83808;SHT31;73824;40.292;17.998;2023-12-28T10:30:45;19.63;57.32
83808;SHT31;73824;40.292;17.998;2023-12-28T10:33:10;19.19;58.23
83808;SHT31;73824;40.292;17.998;2023-12-28T10:35:36;19.05;58.18
83808;SHT31;73824;40.292;17.998;2023-12-28T10:38:02;18.91;57.78
83808;SHT31;73824;40.292;17.998;2023-12-28T10:40:29;18.99;57.00
83808;SHT31;73824;40.292;17.998;2023-12-28T10:42:58;19.04;56.46
83808;SHT31;73824;40.292;17.998;2023-12-28T10:45:29;18.43;57.62
83808;SHT31;73824;40.292;17.998;2023-12-28T10:50:26;18.63;57.33
83808;SHT31;73824;40.292;17.998;2023-12-28T10:53:00;18.37;58.01
83808;SHT31;73824;40.292;17.998;2023-12-28T10:55:34;17.88;60.26
83808;SHT31;73824;40.292;17.998;2023-12-28T10:58:12;17.47;61.95
83808;SHT31;73824;40.292;17.998;2023-12-28T11:00:43;17.10;62.51
83808;SHT31;73824;40.292;17.998;2023-12-28T11:03:15;16.96;62.80
83808;SHT31;73824;40.292;17.998;2023-12-28T11:05:45;16.89;63.13
83808;SHT31;73824;40.292;17.998;2023-12-28T11:08:11;16.82;63.04
83808;SHT31;73824;40.292;17.998;2023-12-28T11:10:38;16.75;61.89
83808;SHT31;73824;40.292;17.998;2023-12-28T11:13:05;16.71;61.86
83808;SHT31;73824;40.292;17.998;2023-12-28T11:15:31;16.62;60.89
83808;SHT31;73824;40.292;17.998;2023-12-28T11:17:57;16.59;61.04
83808;SHT31;73824;40.292;17.998;2023-12-28T11:20:23;16.59;61.41
83808;SHT31;73824;40.292;17.998;2023-12-28T11:22:49;16.55;62.14
83808;SHT31;73824;40.292;17.998;2023-12-28T11:25:16;16.51;62.64
83808;SHT31;73824;40.292;17.998;2023-12-28T11:27:44;16.48;62.77
83808;SHT31;73824;40.292;17.998;2023-12-28T11:30:10;16.41;62.78
83808;SHT31;73824;40.292;17.998;2023-12-28T11:32:36;16.32;62.89
83808;SHT31;73824;40.292;17.998;2023-12-28T11:35:06;16.37;63.03
83808;SHT31;73824;40.292;17.998;2023-12-28T11:37:36;16.54;61.64
83808;SHT31;73824;40.292;17.998;2023-12-28T11:40:16;16.72;60.91
83808;SHT31;73824;40.292;17.998;2023-12-28T11:42:52;16.79;61.03
83808;SHT31;73824;40.292;17.998;2023-12-28T11:45:19;17.07;60.29
83808;SHT31;73824;40.292;17.998;2023-12-28T11:47:45;17.17;60.48
83808;SHT31;73824;40.292;17.998;2023-12-28T11:50:11;17.17;60.36
83808;SHT31;73824;40.292;17.998;2023-12-28T11:52:38;17.21;60.16
83808;SHT31;73824;40.292;17.998;2023-12-28T11:55:03;17.27;59.69
83808;SHT31;73824;40.292;17.998;2023-12-28T11:57:30;17.34;58.85
83808;SHT31;73824;40.292;17.998;2023-12-28T11:59:58;17.33;59.80
83808;SHT31;73824;40.292;17.998;2023-12-28T12:02:24;17.27;59.62
83808;SHT31;73824;40.292;17.998;2023-12-28T12:04:50;17.23;59.42
83808;SHT31;73824;40.292;17.998;2023-12-28T12:07:15;17.10;59.54
83808;SHT31;73824;40.292;17.998;2023-12-28T12:09:42;17.07;60.02
83808;SHT31;73824;40.292;17.998;2023-12-28T12:12:08;17.10;59.20
83808;SHT31;73824;40.292;17.998;2023-12-28T12:14:34;17.09;59.94
83808;SHT31;73824;40.292;17.998;2023-12-28T12:17:00;17.12;59.63
83808;SHT31;73824;40.292;17.998;2023-12-28T12:19:26;17.10;59.58
83808;SHT31;73824;40.292;17.998;2023-12-28T12:21:52;17.14;58.51
83808;SHT31;73824;40.292;17.998;2023-12-28T12:24:19;17.31;58.48
83808;SHT31;73824;40.292;17.998;2023-12-28T12:26:49;17.42;58.53
83808;SHT31;73824;40.292;17.998;2023-12-28T12:29:15;17.35;57.70
83808;SHT31;73824;40.292;17.998;2023-12-28T12:31:41;17.24;57.89
83808;SHT31;73824;40.292;17.998;2023-12-28T12:34:09;17.14;58.64
83808;SHT31;73824;40.292;17.998;2023-12-28T12:36:34;17.20;58.41
83808;SHT31;73824;40.292;17.998;2023-12-28T12:39:01;17.14;58.46
83808;SHT31;73824;40.292;17.998;2023-12-28T12:41:27;16.97;58.95
83808;SHT31;73824;40.292;17.998;2023-12-28T12:43:53;16.96;59.05
83808;SHT31;73824;40.292;17.998;2023-12-28T12:46:22;16.75;59.80
83808;SHT31;73824;40.292;17.998;2023-12-28T12:48:58;16.76;59.32
83808;SHT31;73824;40.292;17.998;2023-12-28T12:51:27;16.65;59.96
83808;SHT31;73824;40.292;17.998;2023-12-28T12:53:59;16.65;59.90
83808;SHT31;73824;40.292;17.998;2023-12-28T12:56:26;16.56;60.39
83808;SHT31;73824;40.292;17.998;2023-12-28T12:58:53;16.55;60.28
83808;SHT31;73824;40.292;17.998;2023-12-28T13:01:19;16.59;61.15
83808;SHT31;73824;40.292;17.998;2023-12-28T13:03:45;16.65;60.27
83808;SHT31;73824;40.292;17.998;2023-12-28T13:06:11;16.61;60.38
83808;SHT31;73824;40.292;17.998;2023-12-28T13:08:36;16.49;60.58
83808;SHT31;73824;40.292;17.998;2023-12-28T13:11:02;16.64;60.40
83808;SHT31;73824;40.292;17.998;2023-12-28T13:13:27;16.69;59.45
83808;SHT31;73824;40.292;17.998;2023-12-28T13:15:53;16.69;59.32
83808;SHT31;73824;40.292;17.998;2023-12-28T13:18:18;16.72;59.29
83808;SHT31;73824;40.292;17.998;2023-12-28T13:20:44;16.85;58.35
83808;SHT31;73824;40.292;17.998;2023-12-28T13:23:11;16.86;58.54
83808;SHT31;73824;40.292;17.998;2023-12-28T13:25:37;17.07;58.02
83808;SHT31;73824;40.292;17.998;2023-12-28T13:28:02;17.06;58.60
83808;SHT31;73824;40.292;17.998;2023-12-28T13:30:28;17.10;58.28
83808;SHT31;73824;40.292;17.998;2023-12-28T13:32:55;17.17;57.92
83808;SHT31;73824;40.292;17.998;2023-12-28T13:35:24;17.31;60.26
83808;SHT31;73824;40.292;17.998;2023-12-28T13:37:49;17.35;61.86
83808;SHT31;73824;40.292;17.998;2023-12-28T13:40:15;17.09;63.15
83808;SHT31;73824;40.292;17.998;2023-12-28T13:42:41;16.94;64.00
83808;SHT31;73824;40.292;17.998;2023-12-28T13:45:07;16.48;65.68
83808;SHT31;73824;40.292;17.998;2023-12-28T13:47:33;16.54;65.50
83808;SHT31;73824;40.292;17.998;2023-12-28T13:49:58;16.64;65.69
83808;SHT31;73824;40.292;17.998;2023-12-28T13:52:24;16.73;66.01
83808;SHT31;73824;40.292;17.998;2023-12-28T13:54:49;16.66;65.35
83808;SHT31;73824;40.292;17.998;2023-12-28T13:57:15;16.66;66.05
83808;SHT31;73824;40.292;17.998;2023-12-28T13:59:40;16.54;66.37
83808;SHT31;73824;40.292;17.998;2023-12-28T14:02:06;16.58;67.22
83808;SHT31;73824;40.292;17.998;2023-12-28T14:04:31;16.55;66.94
83808;SHT31;73824;40.292;17.998;2023-12-28T14:06:57;16.49;67.19
83808;SHT31;73824;40.292;17.998;2023-12-28T14:09:22;16.49;67.11
83808;SHT31;73824;40.292;17.998;2023-12-28T14:11:48;16.51;67.15
83808;SHT31;73824;40.292;17.998;2023-12-28T14:14:14;16.32;67.77
83808;SHT31;73824;40.292;17.998;2023-12-28T14:16:40;16.25;67.59
83808;SHT31;73824;40.292;17.998;2023-12-28T14:19:05;16.29;67.52
83808;SHT31;73824;40.292;17.998;2023-12-28T14:21:38;16.29;67.71
83808;SHT31;73824;40.292;17.998;2023-12-28T14:24:04;16.24;67.85
83808;SHT31;73824;40.292;17.998;2023-12-28T14:26:34;16.28;67.79
83808;SHT31;73824;40.292;17.998;2023-12-28T14:29:05;16.18;68.46
83808;SHT31;73824;40.292;17.998;2023-12-28T14:31:32;16.06;69.02
83808;SHT31;73824;40.292;17.998;2023-12-28T14:33:58;15.85;69.86
83808;SHT31;73824;40.292;17.998;2023-12-28T14:36:30;15.82;70.11
83808;SHT31;73824;40.292;17.998;2023-12-28T14:38:59;15.62;70.96
83808;SHT31;73824;40.292;17.998;2023-12-28T14:41:25;15.66;71.10
83808;SHT31;73824;40.292;17.998;2023-12-28T14:43:50;15.52;71.75
83808;SHT31;73824;40.292;17.998;2023-12-28T14:46:16;15.52;71.78
83808;SHT31;73824;40.292;17.998;2023-12-28T14:48:42;15.42;72.39
83808;SHT31;73824;40.292;17.998;2023-12-28T14:51:07;15.38;72.87
83808;SHT31;73824;40.292;17.998;2023-12-28T14:53:33;15.31;73.01
83808;SHT31;73824;40.292;17.998;2023-12-28T14:55:58;15.25;73.28
83808;SHT31;73824;40.292;17.998;2023-12-28T14:58:25;15.25;73.20
83808;SHT31;73824;40.292;17.998;2023-12-28T15:00:52;15.18;73.45
83808;SHT31;73824;40.292;17.998;2023-12-28T15:03:19;15.20;73.40
83808;SHT31;73824;40.292;17.998;2023-12-28T15:05:45;15.20;73.31
83808;SHT31;73824;40.292;17.998;2023-12-28T15:08:10;15.12;73.36
83808;SHT31;73824;40.292;17.998;2023-12-28T15:10:36;15.17;72.36
83808;SHT31;73824;40.292;17.998;2023-12-28T15:13:02;15.10;72.18
83808;SHT31;73824;40.292;17.998;2023-12-28T15:15:28;15.14;71.78
83808;SHT31;73824;40.292;17.998;2023-12-28T15:17:54;15.15;71.71
83808;SHT31;73824;40.292;17.998;2023-12-28T15:20:20;15.01;71.35
83808;SHT31;73824;40.292;17.998;2023-12-28T15:22:45;15.01;71.17
83808;SHT31;73824;40.292;17.998;2023-12-28T15:25:11;15.02;71.17
83808;SHT31;73824;40.292;17.998;2023-12-28T15:27:37;14.97;71.19
83808;SHT31;73824;40.292;17.998;2023-12-28T15:30:03;14.81;71.76
83808;SHT31;73824;40.292;17.998;2023-12-28T15:32:31;14.69;72.33
83808;SHT31;73824;40.292;17.998;2023-12-28T15:34:56;14.57;72.80
83808;SHT31;73824;40.292;17.998;2023-12-28T15:37:22;14.46;72.99
83808;SHT31;73824;40.292;17.998;2023-12-28T15:39:48;14.37;73.46
83808;SHT31;73824;40.292;17.998;2023-12-28T15:42:13;14.26;73.98
83808;SHT31;73824;40.292;17.998;2023-12-28T15:44:39;14.15;74.20
83808;SHT31;73824;40.292;17.998;2023-12-28T15:47:07;14.06;74.51
83808;SHT31;73824;40.292;17.998;2023-12-28T15:49:33;13.95;74.93
83808;SHT31;73824;40.292;17.998;2023-12-28T15:51:58;13.89;75.36
83808;SHT31;73824;40.292;17.998;2023-12-28T15:54:24;13.82;75.38
83808;SHT31;73824;40.292;17.998;2023-12-28T15:56:49;13.77;75.53
83808;SHT31;73824;40.292;17.998;2023-12-28T15:59:15;13.67;75.76
83808;SHT31;73824;40.292;17.998;2023-12-28T16:01:40;13.63;76.12
83808;SHT31;73824;40.292;17.998;2023-12-28T16:04:06;13.60;76.46
83808;SHT31;73824;40.292;17.998;2023-12-28T16:06:32;13.58;76.51
83808;SHT31;73824;40.292;17.998;2023-12-28T16:08:57;13.57;76.62
83808;SHT31;73824;40.292;17.998;2023-12-28T16:11:23;13.56;76.82
83808;SHT31;73824;40.292;17.998;2023-12-28T16:13:49;13.58;76.91
83808;SHT31;73824;40.292;17.998;2023-12-28T16:16:14;13.56;76.89
83808;SHT31;73824;40.292;17.998;2023-12-28T16:18:40;13.54;76.68
83808;SHT31;73824;40.292;17.998;2023-12-28T16:21:09;13.53;76.70
83808;SHT31;73824;40.292;17.998;2023-12-28T16:23:35;13.51;76.78
83808;SHT31;73824;40.292;17.998;2023-12-28T16:26:01;13.47;76.94
83808;SHT31;73824;40.292;17.998;2023-12-28T16:28:30;13.46;76.90
83808;SHT31;73824;40.292;17.998;2023-12-28T16:30:57;13.42;76.95
83808;SHT31;73824;40.292;17.998;2023-12-28T16:33:22;13.40;77.07
83808;SHT31;73824;40.292;17.998;2023-12-28T16:35:47;13.40;77.20
83808;SHT31;73824;40.292;17.998;2023-12-28T16:38:13;13.36;77.27
83808;SHT31;73824;40.292;17.998;2023-12-28T16:40:39;13.35;77.39
83808;SHT31;73824;40.292;17.998;2023-12-28T16:43:04;13.26;77.62
83808;SHT31;73824;40.292;17.998;2023-12-28T16:45:29;13.29;78.18
83808;SHT31;73824;40.292;17.998;2023-12-28T16:47:55;13.23;78.41
83808;SHT31;73824;40.292;17.998;2023-12-28T16:50:21;13.43;78.65
83808;SHT31;73824;40.292;17.998;2023-12-28T16:52:49;13.40;78.52
83808;SHT31;73824;40.292;17.998;2023-12-28T16:55:14;13.42;78.33
83808;SHT31;73824;40.292;17.998;2023-12-28T16:57:40;13.49;77.70
83808;SHT31;73824;40.292;17.998;2023-12-28T17:00:06;13.30;78.14
83808;SHT31;73824;40.292;17.998;2023-12-28T17:02:33;13.18;78.42
83808;SHT31;73824;40.292;17.998;2023-12-28T17:04:58;13.08;78.69
83808;SHT31;73824;40.292;17.998;2023-12-28T17:07:24;12.99;79.29
83808;SHT31;73824;40.292;17.998;2023-12-28T17:09:50;12.91;79.47
83808;SHT31;73824;40.292;17.998;2023-12-28T17:12:38;12.78;79.73
83808;SHT31;73824;40.292;17.998;2023-12-28T17:15:10;12.65;80.11
83808;SHT31;73824;40.292;17.998;2023-12-28T17:17:37;12.61;80.35
83808;SHT31;73824;40.292;17.998;2023-12-28T17:20:04;12.53;80.51
83808;SHT31;73824;40.292;17.998;2023-12-28T17:22:41;12.44;81.04
83808;SHT31;73824;40.292;17.998;2023-12-28T17:25:23;12.38;81.27
83808;SHT31;73824;40.292;17.998;2023-12-28T17:27:54;12.36;81.54
83808;SHT31;73824;40.292;17.998;2023-12-28T17:30:23;12.27;81.72
83808;SHT31;73824;40.292;17.998;2023-12-28T17:32:53;12.32;82.15
83808;SHT31;73824;40.292;17.998;2023-12-28T17:35:20;12.32;82.24
83808;SHT31;73824;40.292;17.998;2023-12-28T17:37:46;12.41;82.46
83808;SHT31;73824;40.292;17.998;2023-12-28T17:40:12;12.38;82.45
83808;SHT31;73824;40.292;17.998;2023-12-28T17:42:38;12.30;82.59
83808;SHT31;73824;40.292;17.998;2023-12-28T17:45:07;12.37;82.84
83808;SHT31;73824;40.292;17.998;2023-12-28T17:48:04;12.30;82.87
83808;SHT31;73824;40.292;17.998;2023-12-28T17:50:34;12.17;83.00
83808;SHT31;73824;40.292;17.998;2023-12-28T17:53:00;12.07;83.08
83808;SHT31;73824;40.292;17.998;2023-12-28T17:55:26;11.97;83.22